sensor_id;sensor_type;location;lat;lon;timestamp;P1;durP1;ratioP1;P2;durP2;ratioP2
10162;SDS011;5123;52.556;13.384;2023-06-14T00:03:38;3.17;;;2.87;;
10162;SDS011;5123;52.556;13.384;2023-06-14T00:06:36;3.13;;;2.87;;
10162;SDS011;5123;52.556;13.384;2023-06-14T00:09:09;3.70;;;2.93;;
10162;SDS011;5123;52.556;13.384;2023-06-14T00:11:42;6.17;;;2.93;;
10162;SDS011;5123;52.556;13.384;2023-06-14T00:14:14;3.60;;;2.70;;
10162;SDS011;5123;52.556;13.384;2023-06-14T00:16:47;6.03;;;3.53;;
10162;SDS011;5123;52.556;13.384;2023-06-14T00:19:20;3.90;;;3.50;;
10162;SDS011;5123;52.556;13.384;2023-06-14T00:21:54;3.30;;;3.00;;
10162;SDS011;5123;52.556;13.384;2023-06-14T00:24:28;4.10;;;3.00;;
10162;SDS011;5123;52.556;13.384;2023-06-14T00:27:01;3.77;;;3.20;;
10162;SDS011;5123;52.556;13.384;2023-06-14T00:29:34;3.40;;;3.10;;
10162;SDS011;5123;52.556;13.384;2023-06-14T00:32:07;4.30;;;3.57;;
10162;SDS011;5123;52.556;13.384;2023-06-14T00:34:40;6.97;;;3.33;;
10162;SDS011;5123;52.556;13.384;2023-06-14T00:37:14;8.97;;;3.60;;
10162;SDS011;5123;52.556;13.384;2023-06-14T00:39:47;4.27;;;3.50;;
10162;SDS011;5123;52.556;13.384;2023-06-14T00:42:23;3.73;;;3.10;;
10162;SDS011;5123;52.556;13.384;2023-06-14T00:44:56;3.57;;;3.27;;
10162;SDS011;5123;52.556;13.384;2023-06-14T00:47:29;4.30;;;3.33;;
10162;SDS011;5123;52.556;13.384;2023-06-14T00:50:02;3.33;;;3.03;;
10162;SDS011;5123;52.556;13.384;2023-06-14T00:52:37;5.53;;;2.93;;
10162;SDS011;5123;52.556;13.384;2023-06-14T00:55:10;3.37;;;3.07;;
10162;SDS011;5123;52.556;13.384;2023-06-14T00:57:43;4.07;;;3.27;;
10162;SDS011;5123;52.556;13.384;2023-06-14T01:00:17;8.47;;;3.60;;
10162;SDS011;5123;52.556;13.384;2023-06-14T01:02:51;4.63;;;3.53;;
10162;SDS011;5123;52.556;13.384;2023-06-14T01:05:25;3.70;;;3.40;;
10162;SDS011;5123;52.556;13.384;2023-06-14T01:08:05;5.27;;;3.70;;
10162;SDS011;5123;52.556;13.384;2023-06-14T01:10:41;6.43;;;3.77;;
10162;SDS011;5123;52.556;13.384;2023-06-14T01:13:19;4.60;;;3.60;;
10162;SDS011;5123;52.556;13.384;2023-06-14T01:15:55;5.53;;;3.60;;
10162;SDS011;5123;52.556;13.384;2023-06-14T01:18:28;3.80;;;3.50;;
10162;SDS011;5123;52.556;13.384;2023-06-14T01:21:01;4.07;;;3.23;;
10162;SDS011;5123;52.556;13.384;2023-06-14T01:23:38;4.00;;;3.50;;
10162;SDS011;5123;52.556;13.384;2023-06-14T01:26:11;4.50;;;4.10;;
10162;SDS011;5123;52.556;13.384;2023-06-14T01:28:43;5.33;;;3.80;;
10162;SDS011;5123;52.556;13.384;2023-06-14T01:31:20;4.30;;;3.70;;
10162;SDS011;5123;52.556;13.384;2023-06-14T01:33:54;5.43;;;3.83;;
10162;SDS011;5123;52.556;13.384;2023-06-14T01:36:27;3.90;;;3.50;;
10162;SDS011;5123;52.556;13.384;2023-06-14T01:39:01;4.43;;;4.03;;
10162;SDS011;5123;52.556;13.384;2023-06-14T01:41:35;4.53;;;4.03;;
10162;SDS011;5123;52.556;13.384;2023-06-14T01:44:09;4.90;;;4.40;;
10162;SDS011;5123;52.556;13.384;2023-06-14T01:46:42;5.23;;;3.80;;
10162;SDS011;5123;52.556;13.384;2023-06-14T01:49:17;4.47;;;4.07;;
10162;SDS011;5123;52.556;13.384;2023-06-14T01:51:49;5.07;;;4.20;;
10162;SDS011;5123;52.556;13.384;2023-06-14T01:54:27;5.33;;;4.53;;
10162;SDS011;5123;52.556;13.384;2023-06-14T01:57:00;5.00;;;4.50;;
10162;SDS011;5123;52.556;13.384;2023-06-14T01:59:33;9.07;;;4.63;;
10162;SDS011;5123;52.556;13.384;2023-06-14T02:02:06;5.40;;;4.33;;
10162;SDS011;5123;52.556;13.384;2023-06-14T02:04:39;8.90;;;4.17;;
10162;SDS011;5123;52.556;13.384;2023-06-14T02:07:11;6.47;;;4.47;;
10162;SDS011;5123;52.556;13.384;2023-06-14T02:09:46;5.60;;;4.83;;
10162;SDS011;5123;52.556;13.384;2023-06-14T02:12:21;7.80;;;4.97;;
10162;SDS011;5123;52.556;13.384;2023-06-14T02:14:53;7.83;;;4.87;;
10162;SDS011;5123;52.556;13.384;2023-06-14T02:17:27;8.77;;;4.80;;
10162;SDS011;5123;52.556;13.384;2023-06-14T02:20:00;7.13;;;4.10;;
10162;SDS011;5123;52.556;13.384;2023-06-14T02:22:36;4.77;;;4.30;;
10162;SDS011;5123;52.556;13.384;2023-06-14T02:25:10;4.80;;;4.20;;
10162;SDS011;5123;52.556;13.384;2023-06-14T02:27:43;5.00;;;4.50;;
10162;SDS011;5123;52.556;13.384;2023-06-14T02:30:16;8.13;;;4.80;;
10162;SDS011;5123;52.556;13.384;2023-06-14T02:32:54;4.97;;;4.37;;
10162;SDS011;5123;52.556;13.384;2023-06-14T02:35:26;6.33;;;4.97;;
10162;SDS011;5123;52.556;13.384;2023-06-14T02:37:59;5.03;;;4.63;;
10162;SDS011;5123;52.556;13.384;2023-06-14T02:40:33;6.90;;;5.07;;
10162;SDS011;5123;52.556;13.384;2023-06-14T02:43:06;5.33;;;4.83;;
10162;SDS011;5123;52.556;13.384;2023-06-14T02:45:39;5.17;;;4.67;;
10162;SDS011;5123;52.556;13.384;2023-06-14T02:48:12;5.40;;;4.90;;
10162;SDS011;5123;52.556;13.384;2023-06-14T02:50:46;6.00;;;4.90;;
10162;SDS011;5123;52.556;13.384;2023-06-14T02:53:18;6.43;;;5.13;;
10162;SDS011;5123;52.556;13.384;2023-06-14T02:55:53;7.33;;;5.20;;
10162;SDS011;5123;52.556;13.384;2023-06-14T02:58:26;5.90;;;5.03;;
10162;SDS011;5123;52.556;13.384;2023-06-14T03:00:59;7.43;;;4.87;;
10162;SDS011;5123;52.556;13.384;2023-06-14T03:03:35;7.03;;;5.30;;
10162;SDS011;5123;52.556;13.384;2023-06-14T03:06:10;5.50;;;5.00;;
10162;SDS011;5123;52.556;13.384;2023-06-14T03:08:45;6.60;;;5.27;;
10162;SDS011;5123;52.556;13.384;2023-06-14T03:11:21;7.67;;;5.03;;
10162;SDS011;5123;52.556;13.384;2023-06-14T03:13:54;5.90;;;5.37;;
10162;SDS011;5123;52.556;13.384;2023-06-14T03:16:27;8.10;;;4.97;;
10162;SDS011;5123;52.556;13.384;2023-06-14T03:19:01;9.20;;;5.30;;
10162;SDS011;5123;52.556;13.384;2023-06-14T03:21:34;5.83;;;5.20;;
10162;SDS011;5123;52.556;13.384;2023-06-14T03:24:09;5.50;;;4.83;;
10162;SDS011;5123;52.556;13.384;2023-06-14T03:26:43;6.57;;;5.33;;
10162;SDS011;5123;52.556;13.384;2023-06-14T03:29:19;6.30;;;5.70;;
10162;SDS011;5123;52.556;13.384;2023-06-14T03:31:58;7.93;;;5.40;;
10162;SDS011;5123;52.556;13.384;2023-06-14T03:34:31;5.90;;;4.90;;
10162;SDS011;5123;52.556;13.384;2023-06-14T03:37:04;6.67;;;5.93;;
10162;SDS011;5123;52.556;13.384;2023-06-14T03:39:37;6.63;;;5.47;;
10162;SDS011;5123;52.556;13.384;2023-06-14T03:42:18;6.27;;;5.10;;
10162;SDS011;5123;52.556;13.384;2023-06-14T03:44:51;5.93;;;5.40;;
10162;SDS011;5123;52.556;13.384;2023-06-14T03:47:27;6.47;;;5.70;;
10162;SDS011;5123;52.556;13.384;2023-06-14T03:49:59;6.43;;;5.73;;
10162;SDS011;5123;52.556;13.384;2023-06-14T03:52:32;5.63;;;5.03;;
10162;SDS011;5123;52.556;13.384;2023-06-14T03:55:06;6.83;;;5.53;;
10162;SDS011;5123;52.556;13.384;2023-06-14T03:57:43;7.07;;;5.20;;
10162;SDS011;5123;52.556;13.384;2023-06-14T04:00:16;6.40;;;5.50;;
10162;SDS011;5123;52.556;13.384;2023-06-14T04:02:51;7.47;;;6.07;;
10162;SDS011;5123;52.556;13.384;2023-06-14T04:05:25;8.00;;;5.63;;
10162;SDS011;5123;52.556;13.384;2023-06-14T04:07:58;7.43;;;5.63;;
10162;SDS011;5123;52.556;13.384;2023-06-14T04:10:32;6.80;;;6.20;;
10162;SDS011;5123;52.556;13.384;2023-06-14T04:13:09;8.33;;;5.83;;
10162;SDS011;5123;52.556;13.384;2023-06-14T04:15:44;8.17;;;6.30;;
10162;SDS011;5123;52.556;13.384;2023-06-14T04:18:18;8.03;;;5.87;;
10162;SDS011;5123;52.556;13.384;2023-06-14T04:20:55;7.50;;;6.07;;
10162;SDS011;5123;52.556;13.384;2023-06-14T04:23:28;9.07;;;6.13;;
10162;SDS011;5123;52.556;13.384;2023-06-14T04:26:01;9.40;;;5.93;;
10162;SDS011;5123;52.556;13.384;2023-06-14T04:28:35;6.17;;;5.27;;
10162;SDS011;5123;52.556;13.384;2023-06-14T04:31:13;8.33;;;6.33;;
10162;SDS011;5123;52.556;13.384;2023-06-14T04:33:47;8.30;;;5.67;;
10162;SDS011;5123;52.556;13.384;2023-06-14T04:36:22;8.93;;;6.53;;
10162;SDS011;5123;52.556;13.384;2023-06-14T04:38:59;7.60;;;6.53;;
10162;SDS011;5123;52.556;13.384;2023-06-14T04:41:31;10.00;;;6.40;;
10162;SDS011;5123;52.556;13.384;2023-06-14T04:44:06;7.43;;;6.50;;
10162;SDS011;5123;52.556;13.384;2023-06-14T04:46:39;6.73;;;5.90;;
10162;SDS011;5123;52.556;13.384;2023-06-14T04:49:19;9.30;;;6.13;;
10162;SDS011;5123;52.556;13.384;2023-06-14T04:51:58;8.57;;;5.97;;
10162;SDS011;5123;52.556;13.384;2023-06-14T04:54:32;7.57;;;6.27;;
10162;SDS011;5123;52.556;13.384;2023-06-14T04:57:11;7.43;;;6.57;;
10162;SDS011;5123;52.556;13.384;2023-06-14T04:59:46;7.47;;;6.00;;
10162;SDS011;5123;52.556;13.384;2023-06-14T05:02:19;9.37;;;6.60;;
10162;SDS011;5123;52.556;13.384;2023-06-14T05:04:55;10.03;;;6.17;;
10162;SDS011;5123;52.556;13.384;2023-06-14T05:07:28;6.87;;;6.27;;
10162;SDS011;5123;52.556;13.384;2023-06-14T05:10:01;7.30;;;5.80;;
10162;SDS011;5123;52.556;13.384;2023-06-14T05:12:34;7.57;;;6.13;;
10162;SDS011;5123;52.556;13.384;2023-06-14T05:15:09;8.43;;;6.00;;
10162;SDS011;5123;52.556;13.384;2023-06-14T05:17:45;8.73;;;5.90;;
10162;SDS011;5123;52.556;13.384;2023-06-14T05:20:24;7.60;;;6.20;;
10162;SDS011;5123;52.556;13.384;2023-06-14T05:22:58;8.00;;;6.20;;
10162;SDS011;5123;52.556;13.384;2023-06-14T05:25:30;7.83;;;6.57;;
10162;SDS011;5123;52.556;13.384;2023-06-14T05:28:03;9.50;;;6.57;;
10162;SDS011;5123;52.556;13.384;2023-06-14T05:30:38;6.87;;;6.17;;
10162;SDS011;5123;52.556;13.384;2023-06-14T05:33:11;6.87;;;5.87;;
10162;SDS011;5123;52.556;13.384;2023-06-14T05:35:43;6.10;;;5.57;;
10162;SDS011;5123;52.556;13.384;2023-06-14T05:38:16;9.33;;;6.80;;
10162;SDS011;5123;52.556;13.384;2023-06-14T05:40:49;6.40;;;5.80;;
10162;SDS011;5123;52.556;13.384;2023-06-14T05:43:22;8.90;;;6.57;;
10162;SDS011;5123;52.556;13.384;2023-06-14T05:45:56;10.23;;;5.57;;
10162;SDS011;5123;52.556;13.384;2023-06-14T05:48:30;9.47;;;6.03;;
10162;SDS011;5123;52.556;13.384;2023-06-14T05:51:03;6.53;;;5.93;;
10162;SDS011;5123;52.556;13.384;2023-06-14T05:53:40;8.40;;;6.47;;
10162;SDS011;5123;52.556;13.384;2023-06-14T05:56:12;6.33;;;5.73;;
10162;SDS011;5123;52.556;13.384;2023-06-14T05:58:45;6.63;;;5.93;;
10162;SDS011;5123;52.556;13.384;2023-06-14T06:01:19;9.30;;;6.73;;
10162;SDS011;5123;52.556;13.384;2023-06-14T06:03:52;6.57;;;5.87;;
10162;SDS011;5123;52.556;13.384;2023-06-14T06:06:25;7.00;;;6.30;;
10162;SDS011;5123;52.556;13.384;2023-06-14T06:08:58;6.77;;;5.80;;
10162;SDS011;5123;52.556;13.384;2023-06-14T06:11:31;6.30;;;5.53;;
10162;SDS011;5123;52.556;13.384;2023-06-14T06:14:22;13.03;;;6.20;;
10162;SDS011;5123;52.556;13.384;2023-06-14T06:16:56;8.23;;;6.30;;
10162;SDS011;5123;52.556;13.384;2023-06-14T06:19:29;6.57;;;5.83;;
10162;SDS011;5123;52.556;13.384;2023-06-14T06:22:02;8.63;;;5.73;;
10162;SDS011;5123;52.556;13.384;2023-06-14T06:24:36;7.73;;;5.93;;
10162;SDS011;5123;52.556;13.384;2023-06-14T06:27:09;9.47;;;6.00;;
10162;SDS011;5123;52.556;13.384;2023-06-14T06:29:41;8.80;;;6.00;;
10162;SDS011;5123;52.556;13.384;2023-06-14T06:32:16;9.50;;;5.93;;
10162;SDS011;5123;52.556;13.384;2023-06-14T06:34:49;7.10;;;6.30;;
10162;SDS011;5123;52.556;13.384;2023-06-14T06:37:21;10.17;;;6.70;;
10162;SDS011;5123;52.556;13.384;2023-06-14T06:39:54;6.93;;;5.60;;
10162;SDS011;5123;52.556;13.384;2023-06-14T06:42:27;6.07;;;5.23;;
10162;SDS011;5123;52.556;13.384;2023-06-14T06:45:00;11.50;;;5.87;;
10162;SDS011;5123;52.556;13.384;2023-06-14T06:47:34;8.57;;;6.60;;
10162;SDS011;5123;52.556;13.384;2023-06-14T06:50:07;7.50;;;6.10;;
10162;SDS011;5123;52.556;13.384;2023-06-14T06:52:40;10.13;;;5.73;;
10162;SDS011;5123;52.556;13.384;2023-06-14T06:55:12;9.80;;;6.00;;
10162;SDS011;5123;52.556;13.384;2023-06-14T06:57:46;9.50;;;5.77;;
10162;SDS011;5123;52.556;13.384;2023-06-14T07:00:23;6.80;;;6.10;;
10162;SDS011;5123;52.556;13.384;2023-06-14T07:03:00;8.23;;;6.10;;
10162;SDS011;5123;52.556;13.384;2023-06-14T07:05:35;8.60;;;6.10;;
10162;SDS011;5123;52.556;13.384;2023-06-14T07:08:09;12.10;;;5.47;;
10162;SDS011;5123;52.556;13.384;2023-06-14T07:10:42;9.73;;;6.27;;
10162;SDS011;5123;52.556;13.384;2023-06-14T07:13:15;6.23;;;5.60;;
10162;SDS011;5123;52.556;13.384;2023-06-14T07:15:47;6.60;;;4.90;;
10162;SDS011;5123;52.556;13.384;2023-06-14T07:18:21;7.27;;;5.80;;
10162;SDS011;5123;52.556;13.384;2023-06-14T07:20:54;9.43;;;6.57;;
10162;SDS011;5123;52.556;13.384;2023-06-14T07:23:27;9.97;;;5.33;;
10162;SDS011;5123;52.556;13.384;2023-06-14T07:26:00;9.17;;;5.57;;
10162;SDS011;5123;52.556;13.384;2023-06-14T07:28:32;10.70;;;6.30;;
10162;SDS011;5123;52.556;13.384;2023-06-14T07:31:08;7.67;;;5.43;;
10162;SDS011;5123;52.556;13.384;2023-06-14T07:33:45;11.37;;;5.80;;
10162;SDS011;5123;52.556;13.384;2023-06-14T07:36:18;6.37;;;5.43;;
10162;SDS011;5123;52.556;13.384;2023-06-14T07:38:51;13.20;;;5.40;;
10162;SDS011;5123;52.556;13.384;2023-06-14T07:41:25;9.87;;;6.07;;
10162;SDS011;5123;52.556;13.384;2023-06-14T07:43:58;5.83;;;5.23;;
10162;SDS011;5123;52.556;13.384;2023-06-14T07:46:30;6.03;;;4.93;;
10162;SDS011;5123;52.556;13.384;2023-06-14T07:49:05;7.03;;;5.07;;
10162;SDS011;5123;52.556;13.384;2023-06-14T07:51:38;6.53;;;5.43;;
10162;SDS011;5123;52.556;13.384;2023-06-14T07:54:10;6.37;;;5.10;;
10162;SDS011;5123;52.556;13.384;2023-06-14T07:56:43;7.60;;;5.13;;
10162;SDS011;5123;52.556;13.384;2023-06-14T07:59:16;8.40;;;5.83;;
10162;SDS011;5123;52.556;13.384;2023-06-14T08:01:49;5.43;;;4.93;;
10162;SDS011;5123;52.556;13.384;2023-06-14T08:04:23;9.97;;;5.20;;
10162;SDS011;5123;52.556;13.384;2023-06-14T08:06:58;6.37;;;4.63;;
10162;SDS011;5123;52.556;13.384;2023-06-14T08:09:32;5.80;;;4.50;;
10162;SDS011;5123;52.556;13.384;2023-06-14T08:12:04;6.83;;;4.70;;
10162;SDS011;5123;52.556;13.384;2023-06-14T08:14:39;7.27;;;4.93;;
10162;SDS011;5123;52.556;13.384;2023-06-14T08:17:12;5.20;;;4.70;;
10162;SDS011;5123;52.556;13.384;2023-06-14T08:19:46;6.43;;;4.77;;
10162;SDS011;5123;52.556;13.384;2023-06-14T08:22:21;9.03;;;5.00;;
10162;SDS011;5123;52.556;13.384;2023-06-14T08:24:55;9.63;;;5.27;;
10162;SDS011;5123;52.556;13.384;2023-06-14T08:27:31;9.37;;;5.00;;
10162;SDS011;5123;52.556;13.384;2023-06-14T08:30:04;4.73;;;4.33;;
10162;SDS011;5123;52.556;13.384;2023-06-14T08:32:37;7.33;;;4.47;;
10162;SDS011;5123;52.556;13.384;2023-06-14T08:35:14;9.60;;;5.20;;
10162;SDS011;5123;52.556;13.384;2023-06-14T08:37:47;5.27;;;4.73;;
10162;SDS011;5123;52.556;13.384;2023-06-14T08:40:21;5.43;;;4.63;;
10162;SDS011;5123;52.556;13.384;2023-06-14T08:42:54;5.13;;;4.63;;
10162;SDS011;5123;52.556;13.384;2023-06-14T08:45:27;9.37;;;4.90;;
10162;SDS011;5123;52.556;13.384;2023-06-14T08:48:02;5.00;;;4.50;;
10162;SDS011;5123;52.556;13.384;2023-06-14T08:50:38;7.07;;;4.23;;
10162;SDS011;5123;52.556;13.384;2023-06-14T08:53:14;5.70;;;4.80;;
10162;SDS011;5123;52.556;13.384;2023-06-14T08:55:53;8.57;;;4.40;;
10162;SDS011;5123;52.556;13.384;2023-06-14T08:58:28;4.67;;;4.27;;
10162;SDS011;5123;52.556;13.384;2023-06-14T09:01:02;5.13;;;3.93;;
10162;SDS011;5123;52.556;13.384;2023-06-14T09:03:35;4.70;;;3.60;;
10162;SDS011;5123;52.556;13.384;2023-06-14T09:06:13;5.13;;;4.23;;
10162;SDS011;5123;52.556;13.384;2023-06-14T09:08:47;6.57;;;4.20;;
10162;SDS011;5123;52.556;13.384;2023-06-14T09:11:20;5.67;;;3.73;;
10162;SDS011;5123;52.556;13.384;2023-06-14T09:13:54;6.63;;;3.83;;
10162;SDS011;5123;52.556;13.384;2023-06-14T09:16:27;6.53;;;4.40;;
10162;SDS011;5123;52.556;13.384;2023-06-14T09:19:00;6.30;;;4.37;;
10162;SDS011;5123;52.556;13.384;2023-06-14T09:21:35;5.87;;;4.53;;
10162;SDS011;5123;52.556;13.384;2023-06-14T09:24:12;6.27;;;4.13;;
10162;SDS011;5123;52.556;13.384;2023-06-14T09:26:46;6.93;;;4.27;;
10162;SDS011;5123;52.556;13.384;2023-06-14T09:29:22;6.20;;;4.60;;
10162;SDS011;5123;52.556;13.384;2023-06-14T09:31:55;7.17;;;4.20;;
10162;SDS011;5123;52.556;13.384;2023-06-14T09:34:28;5.73;;;4.60;;
10162;SDS011;5123;52.556;13.384;2023-06-14T09:37:03;6.33;;;4.37;;
10162;SDS011;5123;52.556;13.384;2023-06-14T09:39:36;11.27;;;4.50;;
10162;SDS011;5123;52.556;13.384;2023-06-14T09:42:21;5.50;;;4.17;;
10162;SDS011;5123;52.556;13.384;2023-06-14T09:44:56;8.50;;;4.20;;
10162;SDS011;5123;52.556;13.384;2023-06-14T09:47:28;5.67;;;4.23;;
10162;SDS011;5123;52.556;13.384;2023-06-14T09:50:01;4.93;;;4.40;;
10162;SDS011;5123;52.556;13.384;2023-06-14T09:52:36;5.60;;;3.83;;
10162;SDS011;5123;52.556;13.384;2023-06-14T09:55:10;8.03;;;4.00;;
10162;SDS011;5123;52.556;13.384;2023-06-14T09:57:44;4.97;;;4.40;;
10162;SDS011;5123;52.556;13.384;2023-06-14T10:00:20;4.93;;;4.00;;
10162;SDS011;5123;52.556;13.384;2023-06-14T10:02:54;9.13;;;4.47;;
10162;SDS011;5123;52.556;13.384;2023-06-14T10:05:27;5.43;;;4.27;;
10162;SDS011;5123;52.556;13.384;2023-06-14T10:08:03;5.40;;;4.90;;
10162;SDS011;5123;52.556;13.384;2023-06-14T10:10:38;9.00;;;5.50;;
10162;SDS011;5123;52.556;13.384;2023-06-14T10:13:11;5.73;;;4.37;;
10162;SDS011;5123;52.556;13.384;2023-06-14T10:15:47;6.03;;;4.83;;
10162;SDS011;5123;52.556;13.384;2023-06-14T10:18:24;8.90;;;4.47;;
10162;SDS011;5123;52.556;13.384;2023-06-14T10:21:04;8.73;;;5.00;;
10162;SDS011;5123;52.556;13.384;2023-06-14T10:23:42;10.53;;;5.27;;
10162;SDS011;5123;52.556;13.384;2023-06-14T10:26:24;7.80;;;4.73;;
10162;SDS011;5123;52.556;13.384;2023-06-14T10:28:58;8.43;;;5.07;;
10162;SDS011;5123;52.556;13.384;2023-06-14T10:31:40;8.33;;;4.63;;
10162;SDS011;5123;52.556;13.384;2023-06-14T10:34:20;7.67;;;4.57;;
10162;SDS011;5123;52.556;13.384;2023-06-14T10:37:01;8.93;;;5.27;;
10162;SDS011;5123;52.556;13.384;2023-06-14T10:39:38;5.93;;;4.40;;
10162;SDS011;5123;52.556;13.384;2023-06-14T10:42:11;5.77;;;4.13;;
10162;SDS011;5123;52.556;13.384;2023-06-14T10:44:44;7.47;;;4.47;;
10162;SDS011;5123;52.556;13.384;2023-06-14T10:47:24;9.53;;;4.87;;
10162;SDS011;5123;52.556;13.384;2023-06-14T10:49:58;8.73;;;4.47;;
10162;SDS011;5123;52.556;13.384;2023-06-14T10:52:37;7.07;;;4.80;;
10162;SDS011;5123;52.556;13.384;2023-06-14T10:55:12;11.67;;;5.50;;
10162;SDS011;5123;52.556;13.384;2023-06-14T10:57:49;5.20;;;4.03;;
10162;SDS011;5123;52.556;13.384;2023-06-14T11:00:27;7.93;;;5.03;;
10162;SDS011;5123;52.556;13.384;2023-06-14T11:05:53;6.40;;;4.10;;
10162;SDS011;5123;52.556;13.384;2023-06-14T11:11:24;8.07;;;4.50;;
10162;SDS011;5123;52.556;13.384;2023-06-14T11:14:01;4.90;;;4.50;;
10162;SDS011;5123;52.556;13.384;2023-06-14T11:16:36;6.70;;;4.47;;
10162;SDS011;5123;52.556;13.384;2023-06-14T11:19:09;7.67;;;4.00;;
10162;SDS011;5123;52.556;13.384;2023-06-14T11:21:42;6.37;;;4.63;;
10162;SDS011;5123;52.556;13.384;2023-06-14T11:24:15;7.87;;;4.23;;
10162;SDS011;5123;52.556;13.384;2023-06-14T11:26:49;7.73;;;4.10;;
10162;SDS011;5123;52.556;13.384;2023-06-14T11:29:22;13.50;;;4.33;;
10162;SDS011;5123;52.556;13.384;2023-06-14T11:31:57;10.00;;;4.10;;
10162;SDS011;5123;52.556;13.384;2023-06-14T11:34:31;7.40;;;4.07;;
10162;SDS011;5123;52.556;13.384;2023-06-14T11:37:04;4.87;;;4.03;;
10162;SDS011;5123;52.556;13.384;2023-06-14T11:39:37;8.13;;;4.00;;
10162;SDS011;5123;52.556;13.384;2023-06-14T11:42:17;6.33;;;4.33;;
10162;SDS011;5123;52.556;13.384;2023-06-14T11:44:49;5.17;;;3.50;;
10162;SDS011;5123;52.556;13.384;2023-06-14T11:47:31;11.10;;;4.20;;
10162;SDS011;5123;52.556;13.384;2023-06-14T11:50:04;5.30;;;3.60;;
10162;SDS011;5123;52.556;13.384;2023-06-14T11:52:37;6.10;;;3.67;;
10162;SDS011;5123;52.556;13.384;2023-06-14T11:55:10;4.20;;;3.77;;
10162;SDS011;5123;52.556;13.384;2023-06-14T11:57:46;5.83;;;3.43;;
10162;SDS011;5123;52.556;13.384;2023-06-14T12:00:18;7.53;;;4.23;;
10162;SDS011;5123;52.556;13.384;2023-06-14T12:02:52;5.93;;;3.97;;
10162;SDS011;5123;52.556;13.384;2023-06-14T12:05:27;9.90;;;3.93;;
10162;SDS011;5123;52.556;13.384;2023-06-14T12:08:01;7.17;;;4.13;;
10162;SDS011;5123;52.556;13.384;2023-06-14T12:10:39;6.17;;;3.40;;
10162;SDS011;5123;52.556;13.384;2023-06-14T12:13:16;7.07;;;3.60;;
10162;SDS011;5123;52.556;13.384;2023-06-14T12:15:53;9.27;;;3.97;;
10162;SDS011;5123;52.556;13.384;2023-06-14T12:18:34;5.27;;;3.70;;
10162;SDS011;5123;52.556;13.384;2023-06-14T12:21:07;9.67;;;3.90;;
10162;SDS011;5123;52.556;13.384;2023-06-14T12:23:43;5.23;;;4.20;;
10162;SDS011;5123;52.556;13.384;2023-06-14T12:26:17;4.03;;;3.63;;
10162;SDS011;5123;52.556;13.384;2023-06-14T12:28:52;7.87;;;3.80;;
10162;SDS011;5123;52.556;13.384;2023-06-14T12:31:25;7.90;;;3.80;;
10162;SDS011;5123;52.556;13.384;2023-06-14T12:33:58;7.10;;;3.93;;
10162;SDS011;5123;52.556;13.384;2023-06-14T12:36:36;6.00;;;3.33;;
10162;SDS011;5123;52.556;13.384;2023-06-14T12:39:13;9.00;;;3.83;;
10162;SDS011;5123;52.556;13.384;2023-06-14T12:41:46;5.17;;;3.07;;
10162;SDS011;5123;52.556;13.384;2023-06-14T12:44:21;9.90;;;4.90;;
10162;SDS011;5123;52.556;13.384;2023-06-14T12:46:54;5.93;;;5.27;;
10162;SDS011;5123;52.556;13.384;2023-06-14T12:49:27;5.47;;;4.43;;
10162;SDS011;5123;52.556;13.384;2023-06-14T12:52:00;8.57;;;4.50;;
10162;SDS011;5123;52.556;13.384;2023-06-14T12:54:34;6.37;;;3.90;;
10162;SDS011;5123;52.556;13.384;2023-06-14T12:57:12;6.17;;;3.90;;
10162;SDS011;5123;52.556;13.384;2023-06-14T12:59:46;6.47;;;3.77;;
10162;SDS011;5123;52.556;13.384;2023-06-14T13:02:19;9.47;;;4.77;;
10162;SDS011;5123;52.556;13.384;2023-06-14T13:04:59;12.07;;;6.30;;
10162;SDS011;5123;52.556;13.384;2023-06-14T13:07:32;7.83;;;4.83;;
10162;SDS011;5123;52.556;13.384;2023-06-14T13:10:05;12.60;;;6.13;;
10162;SDS011;5123;52.556;13.384;2023-06-14T13:12:38;6.30;;;3.80;;
10162;SDS011;5123;52.556;13.384;2023-06-14T13:15:12;5.80;;;4.70;;
10162;SDS011;5123;52.556;13.384;2023-06-14T13:17:45;11.90;;;5.00;;
10162;SDS011;5123;52.556;13.384;2023-06-14T13:20:20;14.20;;;4.73;;
10162;SDS011;5123;52.556;13.384;2023-06-14T13:22:53;11.07;;;3.92;;
10162;SDS011;5123;52.556;13.384;2023-06-14T13:25:26;6.17;;;3.63;;
10162;SDS011;5123;52.556;13.384;2023-06-14T13:27:58;6.97;;;3.70;;
10162;SDS011;5123;52.556;13.384;2023-06-14T13:30:32;5.63;;;3.83;;
10162;SDS011;5123;52.556;13.384;2023-06-14T13:33:05;8.50;;;3.90;;
10162;SDS011;5123;52.556;13.384;2023-06-14T13:35:38;4.77;;;3.53;;
10162;SDS011;5123;52.556;13.384;2023-06-14T13:38:11;7.97;;;3.67;;
10162;SDS011;5123;52.556;13.384;2023-06-14T13:40:46;5.27;;;3.50;;
10162;SDS011;5123;52.556;13.384;2023-06-14T13:43:20;7.80;;;3.30;;
10162;SDS011;5123;52.556;13.384;2023-06-14T13:45:55;5.77;;;3.13;;
10162;SDS011;5123;52.556;13.384;2023-06-14T13:48:46;3.97;;;2.93;;
10162;SDS011;5123;52.556;13.384;2023-06-14T13:51:37;7.57;;;3.40;;
10162;SDS011;5123;52.556;13.384;2023-06-14T13:54:27;12.53;;;3.60;;
10162;SDS011;5123;52.556;13.384;2023-06-14T13:57:17;4.78;;;3.50;;
10162;SDS011;5123;52.556;13.384;2023-06-14T14:00:08;5.05;;;3.67;;
10162;SDS011;5123;52.556;13.384;2023-06-14T14:03:01;4.23;;;3.37;;
10162;SDS011;5123;52.556;13.384;2023-06-14T14:05:52;5.20;;;3.57;;
10162;SDS011;5123;52.556;13.384;2023-06-14T14:08:42;4.83;;;3.53;;
10162;SDS011;5123;52.556;13.384;2023-06-14T14:11:32;4.83;;;3.03;;
10162;SDS011;5123;52.556;13.384;2023-06-14T14:14:22;6.17;;;3.10;;
10162;SDS011;5123;52.556;13.384;2023-06-14T14:17:13;7.83;;;3.83;;
10162;SDS011;5123;52.556;13.384;2023-06-14T14:20:05;4.70;;;3.63;;
10162;SDS011;5123;52.556;13.384;2023-06-14T14:22:56;4.43;;;3.60;;
10162;SDS011;5123;52.556;13.384;2023-06-14T14:25:46;5.93;;;3.73;;
10162;SDS011;5123;52.556;13.384;2023-06-14T14:28:36;5.37;;;4.30;;
10162;SDS011;5123;52.556;13.384;2023-06-14T14:31:09;17.63;;;5.70;;
10162;SDS011;5123;52.556;13.384;2023-06-14T14:33:42;6.87;;;3.73;;
10162;SDS011;5123;52.556;13.384;2023-06-14T14:36:16;9.57;;;3.90;;
10162;SDS011;5123;52.556;13.384;2023-06-14T14:38:49;5.87;;;3.10;;
10162;SDS011;5123;52.556;13.384;2023-06-14T14:41:23;6.47;;;4.03;;
10162;SDS011;5123;52.556;13.384;2023-06-14T14:43:55;8.10;;;3.60;;
10162;SDS011;5123;52.556;13.384;2023-06-14T14:46:29;5.30;;;3.23;;
10162;SDS011;5123;52.556;13.384;2023-06-14T14:49:01;5.10;;;3.50;;
10162;SDS011;5123;52.556;13.384;2023-06-14T14:51:35;4.87;;;3.60;;
10162;SDS011;5123;52.556;13.384;2023-06-14T14:54:09;6.50;;;3.90;;
10162;SDS011;5123;52.556;13.384;2023-06-14T14:56:42;5.07;;;3.80;;
10162;SDS011;5123;52.556;13.384;2023-06-14T14:59:15;6.77;;;4.40;;
10162;SDS011;5123;52.556;13.384;2023-06-14T15:01:48;12.80;;;4.20;;
10162;SDS011;5123;52.556;13.384;2023-06-14T15:04:22;7.23;;;3.70;;
10162;SDS011;5123;52.556;13.384;2023-06-14T15:06:56;7.90;;;4.50;;
10162;SDS011;5123;52.556;13.384;2023-06-14T15:09:31;9.73;;;4.17;;
10162;SDS011;5123;52.556;13.384;2023-06-14T15:12:04;6.93;;;4.07;;
10162;SDS011;5123;52.556;13.384;2023-06-14T15:14:38;5.40;;;4.03;;
10162;SDS011;5123;52.556;13.384;2023-06-14T15:17:11;4.83;;;3.47;;
10162;SDS011;5123;52.556;13.384;2023-06-14T15:19:44;11.03;;;4.40;;
10162;SDS011;5123;52.556;13.384;2023-06-14T15:22:18;7.63;;;4.40;;
10162;SDS011;5123;52.556;13.384;2023-06-14T15:24:51;5.27;;;3.77;;
10162;SDS011;5123;52.556;13.384;2023-06-14T15:27:24;6.17;;;4.03;;
10162;SDS011;5123;52.556;13.384;2023-06-14T15:29:57;4.97;;;3.50;;
10162;SDS011;5123;52.556;13.384;2023-06-14T15:32:29;6.97;;;4.30;;
10162;SDS011;5123;52.556;13.384;2023-06-14T15:35:03;4.57;;;3.97;;
10162;SDS011;5123;52.556;13.384;2023-06-14T15:37:37;6.90;;;4.33;;
10162;SDS011;5123;52.556;13.384;2023-06-14T15:40:10;6.43;;;3.97;;